sensor_id;sensor_type;location;lat;lon;timestamp;P1;durP1;ratioP1;P2;durP2;ratioP2
55292;SDS011;41157;53.560;10.098;2023-06-10T00:01:16;9.30;;;3.60;;
55292;SDS011;41157;53.560;10.098;2023-06-10T00:03:43;6.87;;;3.77;;
55292;SDS011;41157;53.560;10.098;2023-06-10T00:06:10;5.97;;;3.63;;
55292;SDS011;41157;53.560;10.098;2023-06-10T00:08:37;8.20;;;3.20;;
55292;SDS011;41157;53.560;10.098;2023-06-10T00:11:04;7.40;;;3.53;;
55292;SDS011;41157;53.560;10.098;2023-06-10T00:13:33;9.23;;;3.90;;
55292;SDS011;41157;53.560;10.098;2023-06-10T00:16:00;10.93;;;3.63;;
55292;SDS011;41157;53.560;10.098;2023-06-10T00:18:28;9.37;;;3.80;;
55292;SDS011;41157;53.560;10.098;2023-06-10T00:20:56;9.43;;;3.63;;
55292;SDS011;41157;53.560;10.098;2023-06-10T00:23:29;9.63;;;3.73;;
55292;SDS011;41157;53.560;10.098;2023-06-10T00:25:57;5.27;;;3.50;;
55292;SDS011;41157;53.560;10.098;2023-06-10T00:28:24;8.87;;;3.80;;
55292;SDS011;41157;53.560;10.098;2023-06-10T00:30:53;12.03;;;4.10;;
55292;SDS011;41157;53.560;10.098;2023-06-10T00:33:20;7.43;;;3.60;;
55292;SDS011;41157;53.560;10.098;2023-06-10T00:35:47;7.43;;;3.20;;
55292;SDS011;41157;53.560;10.098;2023-06-10T00:38:14;5.33;;;3.63;;
55292;SDS011;41157;53.560;10.098;2023-06-10T00:40:41;6.50;;;3.50;;
55292;SDS011;41157;53.560;10.098;2023-06-10T00:43:08;6.47;;;3.20;;
55292;SDS011;41157;53.560;10.098;2023-06-10T00:45:35;7.27;;;3.70;;
55292;SDS011;41157;53.560;10.098;2023-06-10T00:48:04;9.33;;;3.40;;
55292;SDS011;41157;53.560;10.098;2023-06-10T00:50:31;9.13;;;3.13;;
55292;SDS011;41157;53.560;10.098;2023-06-10T00:52:59;5.73;;;3.13;;
55292;SDS011;41157;53.560;10.098;2023-06-10T00:55:26;13.87;;;4.13;;
55292;SDS011;41157;53.560;10.098;2023-06-10T00:57:53;7.90;;;3.40;;
55292;SDS011;41157;53.560;10.098;2023-06-10T01:00:20;7.60;;;2.90;;
55292;SDS011;41157;53.560;10.098;2023-06-10T01:02:48;8.47;;;2.83;;
55292;SDS011;41157;53.560;10.098;2023-06-10T01:05:18;6.70;;;3.10;;
55292;SDS011;41157;53.560;10.098;2023-06-10T01:07:48;10.07;;;3.53;;
55292;SDS011;41157;53.560;10.098;2023-06-10T01:10:19;11.33;;;3.10;;
55292;SDS011;41157;53.560;10.098;2023-06-10T01:12:49;8.53;;;3.10;;
55292;SDS011;41157;53.560;10.098;2023-06-10T01:15:19;8.77;;;3.87;;
55292;SDS011;41157;53.560;10.098;2023-06-10T01:17:54;10.10;;;3.27;;
55292;SDS011;41157;53.560;10.098;2023-06-10T01:20:24;9.10;;;3.03;;
55292;SDS011;41157;53.560;10.098;2023-06-10T01:22:53;6.30;;;2.90;;
55292;SDS011;41157;53.560;10.098;2023-06-10T01:25:20;5.70;;;3.00;;
55292;SDS011;41157;53.560;10.098;2023-06-10T01:27:52;6.43;;;2.83;;
55292;SDS011;41157;53.560;10.098;2023-06-10T01:30:20;9.30;;;3.37;;
55292;SDS011;41157;53.560;10.098;2023-06-10T01:32:54;5.93;;;2.70;;
55292;SDS011;41157;53.560;10.098;2023-06-10T01:35:22;5.83;;;3.07;;
55292;SDS011;41157;53.560;10.098;2023-06-10T01:37:52;8.30;;;2.87;;
55292;SDS011;41157;53.560;10.098;2023-06-10T01:40:20;6.67;;;3.40;;
55292;SDS011;41157;53.560;10.098;2023-06-10T01:42:47;6.17;;;3.10;;
55292;SDS011;41157;53.560;10.098;2023-06-10T01:45:14;6.40;;;2.73;;
55292;SDS011;41157;53.560;10.098;2023-06-10T01:47:41;7.83;;;3.00;;
55292;SDS011;41157;53.560;10.098;2023-06-10T01:50:09;7.60;;;3.10;;
55292;SDS011;41157;53.560;10.098;2023-06-10T01:52:36;8.57;;;3.10;;
55292;SDS011;41157;53.560;10.098;2023-06-10T01:55:05;9.10;;;2.27;;
55292;SDS011;41157;53.560;10.098;2023-06-10T01:57:32;9.23;;;3.37;;
55292;SDS011;41157;53.560;10.098;2023-06-10T01:59:59;8.37;;;3.07;;
55292;SDS011;41157;53.560;10.098;2023-06-10T02:02:26;4.73;;;2.53;;
55292;SDS011;41157;53.560;10.098;2023-06-10T02:04:53;5.07;;;2.80;;
55292;SDS011;41157;53.560;10.098;2023-06-10T02:07:20;3.73;;;2.60;;
55292;SDS011;41157;53.560;10.098;2023-06-10T02:09:47;4.13;;;2.43;;
55292;SDS011;41157;53.560;10.098;2023-06-10T02:12:15;9.47;;;2.50;;
55292;SDS011;41157;53.560;10.098;2023-06-10T02:14:42;6.97;;;2.50;;
55292;SDS011;41157;53.560;10.098;2023-06-10T02:17:09;6.87;;;2.60;;
55292;SDS011;41157;53.560;10.098;2023-06-10T02:19:37;7.23;;;2.37;;
55292;SDS011;41157;53.560;10.098;2023-06-10T02:22:07;8.67;;;2.77;;
55292;SDS011;41157;53.560;10.098;2023-06-10T02:24:35;7.23;;;2.60;;
55292;SDS011;41157;53.560;10.098;2023-06-10T02:27:03;6.40;;;2.27;;
55292;SDS011;41157;53.560;10.098;2023-06-10T02:29:32;6.77;;;2.40;;
55292;SDS011;41157;53.560;10.098;2023-06-10T02:32:00;5.37;;;2.60;;
55292;SDS011;41157;53.560;10.098;2023-06-10T02:34:27;9.20;;;2.63;;
55292;SDS011;41157;53.560;10.098;2023-06-10T02:36:54;4.97;;;2.37;;
55292;SDS011;41157;53.560;10.098;2023-06-10T02:39:21;7.17;;;2.70;;
55292;SDS011;41157;53.560;10.098;2023-06-10T02:41:48;4.93;;;2.10;;
55292;SDS011;41157;53.560;10.098;2023-06-10T02:44:16;4.37;;;2.40;;
55292;SDS011;41157;53.560;10.098;2023-06-10T02:46:44;12.53;;;2.80;;
55292;SDS011;41157;53.560;10.098;2023-06-10T02:49:12;5.80;;;2.60;;
55292;SDS011;41157;53.560;10.098;2023-06-10T02:51:39;3.90;;;2.33;;
55292;SDS011;41157;53.560;10.098;2023-06-10T02:54:06;5.67;;;2.40;;
55292;SDS011;41157;53.560;10.098;2023-06-10T02:56:33;7.17;;;2.30;;
55292;SDS011;41157;53.560;10.098;2023-06-10T02:59:01;5.07;;;2.27;;
55292;SDS011;41157;53.560;10.098;2023-06-10T03:01:28;8.67;;;2.27;;
55292;SDS011;41157;53.560;10.098;2023-06-10T03:03:57;4.50;;;2.23;;
55292;SDS011;41157;53.560;10.098;2023-06-10T03:06:25;7.87;;;2.20;;
55292;SDS011;41157;53.560;10.098;2023-06-10T03:08:52;6.13;;;2.17;;
55292;SDS011;41157;53.560;10.098;2023-06-10T03:11:19;5.47;;;2.30;;
55292;SDS011;41157;53.560;10.098;2023-06-10T03:13:46;4.77;;;1.97;;
55292;SDS011;41157;53.560;10.098;2023-06-10T03:16:13;3.80;;;2.13;;
55292;SDS011;41157;53.560;10.098;2023-06-10T03:18:40;5.53;;;2.63;;
55292;SDS011;41157;53.560;10.098;2023-06-10T03:21:08;8.73;;;2.23;;
55292;SDS011;41157;53.560;10.098;2023-06-10T03:23:35;5.60;;;2.03;;
55292;SDS011;41157;53.560;10.098;2023-06-10T03:26:02;9.03;;;2.63;;
55292;SDS011;41157;53.560;10.098;2023-06-10T03:28:30;5.53;;;2.30;;
55292;SDS011;41157;53.560;10.098;2023-06-10T03:30:57;8.13;;;2.30;;
55292;SDS011;41157;53.560;10.098;2023-06-10T03:33:24;5.53;;;2.10;;
55292;SDS011;41157;53.560;10.098;2023-06-10T03:35:51;9.80;;;2.63;;
55292;SDS011;41157;53.560;10.098;2023-06-10T03:38:19;11.57;;;3.40;;
55292;SDS011;41157;53.560;10.098;2023-06-10T03:40:46;7.43;;;2.00;;
55292;SDS011;41157;53.560;10.098;2023-06-10T03:43:13;4.30;;;2.47;;
55292;SDS011;41157;53.560;10.098;2023-06-10T03:45:40;7.70;;;2.30;;
55292;SDS011;41157;53.560;10.098;2023-06-10T03:48:07;7.27;;;2.40;;
55292;SDS011;41157;53.560;10.098;2023-06-10T03:50:34;5.40;;;2.17;;
55292;SDS011;41157;53.560;10.098;2023-06-10T03:53:01;5.97;;;2.13;;
55292;SDS011;41157;53.560;10.098;2023-06-10T03:55:30;6.03;;;2.60;;
55292;SDS011;41157;53.560;10.098;2023-06-10T03:57:57;5.17;;;2.53;;
55292;SDS011;41157;53.560;10.098;2023-06-10T04:00:24;4.77;;;2.37;;
55292;SDS011;41157;53.560;10.098;2023-06-10T04:02:51;11.03;;;2.67;;
55292;SDS011;41157;53.560;10.098;2023-06-10T04:05:18;8.00;;;2.07;;
55292;SDS011;41157;53.560;10.098;2023-06-10T04:07:47;6.07;;;2.20;;
55292;SDS011;41157;53.560;10.098;2023-06-10T04:10:14;3.73;;;1.87;;
55292;SDS011;41157;53.560;10.098;2023-06-10T04:12:43;8.13;;;2.67;;
55292;SDS011;41157;53.560;10.098;2023-06-10T04:15:10;5.93;;;2.07;;
55292;SDS011;41157;53.560;10.098;2023-06-10T04:17:38;3.73;;;2.00;;
55292;SDS011;41157;53.560;10.098;2023-06-10T04:20:05;7.13;;;2.30;;
55292;SDS011;41157;53.560;10.098;2023-06-10T04:22:34;9.23;;;2.27;;
55292;SDS011;41157;53.560;10.098;2023-06-10T04:25:01;5.27;;;2.10;;
55292;SDS011;41157;53.560;10.098;2023-06-10T04:27:28;5.87;;;2.40;;
55292;SDS011;41157;53.560;10.098;2023-06-10T04:29:57;5.70;;;2.10;;
55292;SDS011;41157;53.560;10.098;2023-06-10T04:32:24;9.47;;;2.23;;
55292;SDS011;41157;53.560;10.098;2023-06-10T04:34:51;7.80;;;2.27;;
55292;SDS011;41157;53.560;10.098;2023-06-10T04:37:18;6.83;;;2.27;;
55292;SDS011;41157;53.560;10.098;2023-06-10T04:39:46;8.30;;;2.20;;
55292;SDS011;41157;53.560;10.098;2023-06-10T04:42:13;4.43;;;2.00;;
55292;SDS011;41157;53.560;10.098;2023-06-10T04:44:40;5.77;;;2.00;;
55292;SDS011;41157;53.560;10.098;2023-06-10T04:47:09;9.93;;;2.07;;
55292;SDS011;41157;53.560;10.098;2023-06-10T04:49:36;5.10;;;2.63;;
55292;SDS011;41157;53.560;10.098;2023-06-10T04:52:03;4.87;;;2.00;;
55292;SDS011;41157;53.560;10.098;2023-06-10T04:54:30;6.47;;;2.50;;
55292;SDS011;41157;53.560;10.098;2023-06-10T04:56:57;5.83;;;1.93;;
55292;SDS011;41157;53.560;10.098;2023-06-10T04:59:25;6.43;;;2.00;;
55292;SDS011;41157;53.560;10.098;2023-06-10T05:01:52;7.03;;;2.10;;
55292;SDS011;41157;53.560;10.098;2023-06-10T09:45:39;6.97;;;2.50;;
55292;SDS011;41157;53.560;10.098;2023-06-10T09:48:06;4.10;;;2.90;;
55292;SDS011;41157;53.560;10.098;2023-06-10T09:50:33;6.13;;;3.05;;
55292;SDS011;41157;53.560;10.098;2023-06-10T09:53:00;7.05;;;2.55;;
55292;SDS011;41157;53.560;10.098;2023-06-10T09:55:28;6.05;;;2.38;;
55292;SDS011;41157;53.560;10.098;2023-06-10T09:57:55;11.10;;;2.97;;
55292;SDS011;41157;53.560;10.098;2023-06-10T10:00:22;8.32;;;2.88;;
55292;SDS011;41157;53.560;10.098;2023-06-10T10:02:52;7.78;;;3.00;;
55292;SDS011;41157;53.560;10.098;2023-06-10T10:05:20;9.15;;;3.17;;
55292;SDS011;41157;53.560;10.098;2023-06-10T10:07:48;5.95;;;2.83;;
55292;SDS011;41157;53.560;10.098;2023-06-10T10:10:16;10.15;;;2.72;;
55292;SDS011;41157;53.560;10.098;2023-06-10T10:12:43;6.13;;;2.70;;
55292;SDS011;41157;53.560;10.098;2023-06-10T10:15:12;6.15;;;2.90;;
55292;SDS011;41157;53.560;10.098;2023-06-10T10:17:39;6.75;;;2.85;;
55292;SDS011;41157;53.560;10.098;2023-06-10T10:20:08;17.15;;;3.78;;
55292;SDS011;41157;53.560;10.098;2023-06-10T10:22:39;9.43;;;3.15;;
55292;SDS011;41157;53.560;10.098;2023-06-10T10:25:08;6.53;;;3.20;;
55292;SDS011;41157;53.560;10.098;2023-06-10T10:27:40;6.68;;;3.05;;
55292;SDS011;41157;53.560;10.098;2023-06-10T10:30:10;5.43;;;2.88;;
55292;SDS011;41157;53.560;10.098;2023-06-10T10:32:38;8.98;;;2.97;;
55292;SDS011;41157;53.560;10.098;2023-06-10T10:35:10;11.43;;;2.80;;
55292;SDS011;41157;53.560;10.098;2023-06-10T10:37:39;5.60;;;2.80;;
55292;SDS011;41157;53.560;10.098;2023-06-10T10:40:06;8.48;;;3.10;;
55292;SDS011;41157;53.560;10.098;2023-06-10T10:42:34;7.25;;;2.85;;
55292;SDS011;41157;53.560;10.098;2023-06-10T10:45:02;5.07;;;2.90;;
55292;SDS011;41157;53.560;10.098;2023-06-10T10:47:29;3.85;;;2.60;;
55292;SDS011;41157;53.560;10.098;2023-06-10T10:49:57;7.28;;;3.17;;
55292;SDS011;41157;53.560;10.098;2023-06-10T10:52:27;6.75;;;2.78;;
55292;SDS011;41157;53.560;10.098;2023-06-10T10:54:55;8.77;;;2.65;;
55292;SDS011;41157;53.560;10.098;2023-06-10T10:57:22;6.25;;;3.22;;
55292;SDS011;41157;53.560;10.098;2023-06-10T10:59:54;5.10;;;2.83;;
55292;SDS011;41157;53.560;10.098;2023-06-10T11:02:34;4.03;;;2.55;;
55292;SDS011;41157;53.560;10.098;2023-06-10T11:05:03;5.70;;;3.17;;
55292;SDS011;41157;53.560;10.098;2023-06-10T11:07:32;5.53;;;2.50;;
55292;SDS011;41157;53.560;10.098;2023-06-10T11:10:00;8.88;;;2.83;;
55292;SDS011;41157;53.560;10.098;2023-06-10T11:12:40;5.85;;;2.65;;
55292;SDS011;41157;53.560;10.098;2023-06-10T11:15:07;5.38;;;2.97;;
55292;SDS011;41157;53.560;10.098;2023-06-10T11:17:34;9.40;;;3.22;;
55292;SDS011;41157;53.560;10.098;2023-06-10T11:20:01;8.52;;;2.83;;
55292;SDS011;41157;53.560;10.098;2023-06-10T11:22:29;5.85;;;2.50;;
55292;SDS011;41157;53.560;10.098;2023-06-10T11:24:57;5.55;;;3.10;;
55292;SDS011;41157;53.560;10.098;2023-06-10T11:27:24;5.60;;;2.67;;
55292;SDS011;41157;53.560;10.098;2023-06-10T11:29:58;6.18;;;3.10;;
55292;SDS011;41157;53.560;10.098;2023-06-10T11:32:25;5.18;;;3.10;;
55292;SDS011;41157;53.560;10.098;2023-06-10T11:34:55;11.40;;;2.97;;
55292;SDS011;41157;53.560;10.098;2023-06-10T11:37:23;4.80;;;2.67;;
55292;SDS011;41157;53.560;10.098;2023-06-10T11:39:51;5.35;;;2.55;;
55292;SDS011;41157;53.560;10.098;2023-06-10T11:42:19;5.70;;;3.40;;
55292;SDS011;41157;53.560;10.098;2023-06-10T11:44:50;8.55;;;3.55;;
55292;SDS011;41157;53.560;10.098;2023-06-10T11:47:17;5.43;;;3.67;;
55292;SDS011;41157;53.560;10.098;2023-06-10T11:49:45;8.52;;;3.30;;
55292;SDS011;41157;53.560;10.098;2023-06-10T11:52:12;6.93;;;3.33;;
55292;SDS011;41157;53.560;10.098;2023-06-10T11:54:39;9.52;;;3.55;;
55292;SDS011;41157;53.560;10.098;2023-06-10T11:57:06;6.00;;;3.10;;
55292;SDS011;41157;53.560;10.098;2023-06-10T11:59:35;7.68;;;3.50;;
55292;SDS011;41157;53.560;10.098;2023-06-10T12:02:03;9.88;;;3.50;;
55292;SDS011;41157;53.560;10.098;2023-06-10T12:04:30;7.60;;;3.65;;
55292;SDS011;41157;53.560;10.098;2023-06-10T12:06:57;7.40;;;3.10;;
55292;SDS011;41157;53.560;10.098;2023-06-10T12:09:25;10.07;;;3.17;;
55292;SDS011;41157;53.560;10.098;2023-06-10T12:11:53;10.35;;;3.13;;
55292;SDS011;41157;53.560;10.098;2023-06-10T12:17:07;5.70;;;3.03;;
55292;SDS011;41157;53.560;10.098;2023-06-10T12:19:37;4.97;;;3.28;;
55292;SDS011;41157;53.560;10.098;2023-06-10T12:22:05;9.02;;;3.15;;
55292;SDS011;41157;53.560;10.098;2023-06-10T12:24:32;8.73;;;3.13;;
55292;SDS011;41157;53.560;10.098;2023-06-10T12:27:00;7.05;;;2.72;;
55292;SDS011;41157;53.560;10.098;2023-06-10T12:29:27;5.88;;;3.40;;
55292;SDS011;41157;53.560;10.098;2023-06-10T12:31:58;7.78;;;3.15;;
55292;SDS011;41157;53.560;10.098;2023-06-10T12:34:34;7.82;;;3.08;;
55292;SDS011;41157;53.560;10.098;2023-06-10T12:37:01;4.57;;;3.28;;
55292;SDS011;41157;53.560;10.098;2023-06-10T12:39:29;9.63;;;3.35;;
55292;SDS011;41157;53.560;10.098;2023-06-10T12:41:56;7.53;;;3.33;;
55292;SDS011;41157;53.560;10.098;2023-06-10T12:44:30;6.50;;;3.03;;
55292;SDS011;41157;53.560;10.098;2023-06-10T12:46:57;7.47;;;3.25;;
55292;SDS011;41157;53.560;10.098;2023-06-10T12:49:24;9.25;;;3.00;;
55292;SDS011;41157;53.560;10.098;2023-06-10T12:51:53;8.30;;;3.53;;
55292;SDS011;41157;53.560;10.098;2023-06-10T12:54:20;5.72;;;3.08;;
55292;SDS011;41157;53.560;10.098;2023-06-10T12:56:48;8.43;;;3.38;;
55292;SDS011;41157;53.560;10.098;2023-06-10T12:59:15;6.20;;;3.22;;
55292;SDS011;41157;53.560;10.098;2023-06-10T13:01:42;6.50;;;3.28;;
55292;SDS011;41157;53.560;10.098;2023-06-10T13:04:09;5.45;;;3.42;;
55292;SDS011;41157;53.560;10.098;2023-06-10T13:06:37;4.78;;;2.97;;
55292;SDS011;41157;53.560;10.098;2023-06-10T13:09:09;3.33;;;3.03;;
55292;SDS011;41157;53.560;10.098;2023-06-10T13:11:36;6.43;;;2.80;;
55292;SDS011;41157;53.560;10.098;2023-06-10T13:14:03;6.35;;;3.20;;
55292;SDS011;41157;53.560;10.098;2023-06-10T13:16:31;9.00;;;2.95;;
55292;SDS011;41157;53.560;10.098;2023-06-10T13:18:58;7.85;;;3.13;;
55292;SDS011;41157;53.560;10.098;2023-06-10T13:21:27;4.30;;;3.13;;
55292;SDS011;41157;53.560;10.098;2023-06-10T13:23:54;9.80;;;2.80;;
55292;SDS011;41157;53.560;10.098;2023-06-10T13:26:22;9.25;;;3.20;;
55292;SDS011;41157;53.560;10.098;2023-06-10T13:28:49;4.95;;;3.15;;
55292;SDS011;41157;53.560;10.098;2023-06-10T13:31:17;8.80;;;3.40;;
55292;SDS011;41157;53.560;10.098;2023-06-10T13:33:45;6.72;;;3.10;;
55292;SDS011;41157;53.560;10.098;2023-06-10T13:36:13;8.65;;;3.63;;
55292;SDS011;41157;53.560;10.098;2023-06-10T13:38:40;6.40;;;3.05;;
55292;SDS011;41157;53.560;10.098;2023-06-10T13:41:07;6.85;;;2.95;;
55292;SDS011;41157;53.560;10.098;2023-06-10T13:43:36;9.38;;;3.03;;
55292;SDS011;41157;53.560;10.098;2023-06-10T13:46:03;9.65;;;2.88;;
55292;SDS011;41157;53.560;10.098;2023-06-10T13:48:30;6.82;;;3.03;;
55292;SDS011;41157;53.560;10.098;2023-06-10T13:50:57;13.18;;;2.80;;
55292;SDS011;41157;53.560;10.098;2023-06-10T13:53:25;8.27;;;2.80;;
55292;SDS011;41157;53.560;10.098;2023-06-10T13:55:52;5.28;;;2.60;;
55292;SDS011;41157;53.560;10.098;2023-06-10T13:58:19;5.97;;;2.95;;
55292;SDS011;41157;53.560;10.098;2023-06-10T14:00:47;9.18;;;3.17;;
55292;SDS011;41157;53.560;10.098;2023-06-10T14:03:14;11.25;;;2.75;;
55292;SDS011;41157;53.560;10.098;2023-06-10T14:05:41;9.27;;;2.78;;
55292;SDS011;41157;53.560;10.098;2023-06-10T14:08:08;9.65;;;3.13;;
55292;SDS011;41157;53.560;10.098;2023-06-10T14:10:35;8.35;;;2.78;;
55292;SDS011;41157;53.560;10.098;2023-06-10T14:13:02;5.40;;;2.90;;
55292;SDS011;41157;53.560;10.098;2023-06-10T14:15:30;6.05;;;2.75;;
55292;SDS011;41157;53.560;10.098;2023-06-10T14:17:58;13.10;;;3.05;;
55292;SDS011;41157;53.560;10.098;2023-06-10T14:20:25;11.35;;;2.78;;
55292;SDS011;41157;53.560;10.098;2023-06-10T14:22:56;6.43;;;2.45;;
55292;SDS011;41157;53.560;10.098;2023-06-10T14:25:23;11.70;;;2.88;;
55292;SDS011;41157;53.560;10.098;2023-06-10T14:27:50;5.72;;;2.95;;
55292;SDS011;41157;53.560;10.098;2023-06-10T14:30:17;8.15;;;2.45;;
55292;SDS011;41157;53.560;10.098;2023-06-10T14:32:44;5.40;;;2.53;;
55292;SDS011;41157;53.560;10.098;2023-06-10T14:35:12;7.25;;;2.40;;
55292;SDS011;41157;53.560;10.098;2023-06-10T14:37:40;16.40;;;2.78;;
55292;SDS011;41157;53.560;10.098;2023-06-10T14:40:07;8.30;;;2.83;;
55292;SDS011;41157;53.560;10.098;2023-06-10T14:42:34;6.10;;;2.60;;
55292;SDS011;41157;53.560;10.098;2023-06-10T14:45:01;4.93;;;2.53;;
55292;SDS011;41157;53.560;10.098;2023-06-10T14:47:29;5.32;;;2.42;;
55292;SDS011;41157;53.560;10.098;2023-06-10T14:49:56;6.75;;;2.55;;
55292;SDS011;41157;53.560;10.098;2023-06-10T14:52:24;8.93;;;3.20;;
55292;SDS011;41157;53.560;10.098;2023-06-10T14:54:51;9.45;;;3.00;;
55292;SDS011;41157;53.560;10.098;2023-06-10T14:57:19;4.47;;;2.53;;
55292;SDS011;41157;53.560;10.098;2023-06-10T14:59:46;6.80;;;2.55;;
55292;SDS011;41157;53.560;10.098;2023-06-10T15:02:13;13.70;;;4.07;;
55292;SDS011;41157;53.560;10.098;2023-06-10T15:04:40;8.82;;;2.78;;
55292;SDS011;41157;53.560;10.098;2023-06-10T15:07:07;7.45;;;2.40;;
55292;SDS011;41157;53.560;10.098;2023-06-10T15:09:35;9.25;;;2.72;;
55292;SDS011;41157;53.560;10.098;2023-06-10T15:12:02;7.03;;;2.70;;
55292;SDS011;41157;53.560;10.098;2023-06-10T15:14:30;7.78;;;2.70;;
55292;SDS011;41157;53.560;10.098;2023-06-10T15:16:57;9.77;;;2.85;;
55292;SDS011;41157;53.560;10.098;2023-06-10T15:19:25;9.32;;;2.33;;
55292;SDS011;41157;53.560;10.098;2023-06-10T15:21:52;7.18;;;2.70;;
55292;SDS011;41157;53.560;10.098;2023-06-10T15:24:19;5.03;;;2.88;;
55292;SDS011;41157;53.560;10.098;2023-06-10T15:26:48;9.05;;;2.50;;
55292;SDS011;41157;53.560;10.098;2023-06-10T15:29:15;6.68;;;2.75;;
55292;SDS011;41157;53.560;10.098;2023-06-10T15:31:42;5.95;;;2.72;;
55292;SDS011;41157;53.560;10.098;2023-06-10T15:34:09;7.60;;;2.53;;
55292;SDS011;41157;53.560;10.098;2023-06-10T15:36:36;7.82;;;3.08;;
55292;SDS011;41157;53.560;10.098;2023-06-10T15:39:03;8.93;;;2.85;;
55292;SDS011;41157;53.560;10.098;2023-06-10T15:41:31;8.13;;;2.58;;
55292;SDS011;41157;53.560;10.098;2023-06-10T15:44:00;5.15;;;2.53;;
55292;SDS011;41157;53.560;10.098;2023-06-10T15:46:27;7.80;;;2.42;;
55292;SDS011;41157;53.560;10.098;2023-06-10T15:48:54;9.55;;;3.03;;
55292;SDS011;41157;53.560;10.098;2023-06-10T15:51:21;14.52;;;3.08;;
55292;SDS011;41157;53.560;10.098;2023-06-10T15:53:48;8.15;;;2.83;;
55292;SDS011;41157;53.560;10.098;2023-06-10T15:56:15;5.78;;;2.60;;
55292;SDS011;41157;53.560;10.098;2023-06-10T15:58:42;3.28;;;2.30;;
55292;SDS011;41157;53.560;10.098;2023-06-10T16:01:10;5.45;;;2.55;;
55292;SDS011;41157;53.560;10.098;2023-06-10T16:03:39;8.50;;;2.72;;
55292;SDS011;41157;53.560;10.098;2023-06-10T16:06:06;14.85;;;3.28;;
55292;SDS011;41157;53.560;10.098;2023-06-10T16:08:33;3.90;;;2.60;;
55292;SDS011;41157;53.560;10.098;2023-06-10T16:11:00;8.95;;;3.00;;
55292;SDS011;41157;53.560;10.098;2023-06-10T16:13:29;7.65;;;2.85;;
55292;SDS011;41157;53.560;10.098;2023-06-10T16:15:56;5.80;;;2.88;;
55292;SDS011;41157;53.560;10.098;2023-06-10T16:18:24;8.32;;;2.55;;
55292;SDS011;41157;53.560;10.098;2023-06-10T16:20:51;5.93;;;2.55;;
55292;SDS011;41157;53.560;10.098;2023-06-10T16:23:18;4.75;;;2.88;;
55292;SDS011;41157;53.560;10.098;2023-06-10T16:25:45;8.82;;;2.80;;
55292;SDS011;41157;53.560;10.098;2023-06-10T16:28:12;10.80;;;3.47;;
55292;SDS011;41157;53.560;10.098;2023-06-10T16:30:39;8.57;;;3.00;;
55292;SDS011;41157;53.560;10.098;2023-06-10T16:33:06;4.32;;;2.50;;
55292;SDS011;41157;53.560;10.098;2023-06-10T16:35:35;5.05;;;2.55;;
55292;SDS011;41157;53.560;10.098;2023-06-10T16:38:02;9.60;;;2.63;;
55292;SDS011;41157;53.560;10.098;2023-06-10T16:40:29;4.85;;;2.63;;
55292;SDS011;41157;53.560;10.098;2023-06-10T16:42:56;5.82;;;3.20;;
55292;SDS011;41157;53.560;10.098;2023-06-10T16:45:23;7.65;;;2.60;;
55292;SDS011;41157;53.560;10.098;2023-06-10T16:47:50;5.63;;;2.70;;
55292;SDS011;41157;53.560;10.098;2023-06-10T16:50:17;12.25;;;2.85;;
55292;SDS011;41157;53.560;10.098;2023-06-10T16:52:45;9.25;;;2.80;;
55292;SDS011;41157;53.560;10.098;2023-06-10T16:55:12;5.72;;;2.88;;
55292;SDS011;41157;53.560;10.098;2023-06-10T16:57:39;7.35;;;3.03;;
55292;SDS011;41157;53.560;10.098;2023-06-10T17:00:07;9.88;;;2.83;;
55292;SDS011;41157;53.560;10.098;2023-06-10T17:02:34;7.32;;;2.70;;
55292;SDS011;41157;53.560;10.098;2023-06-10T17:05:01;7.75;;;2.80;;
55292;SDS011;41157;53.560;10.098;2023-06-10T17:07:28;8.07;;;3.15;;
55292;SDS011;41157;53.560;10.098;2023-06-10T17:09:57;10.32;;;3.03;;
55292;SDS011;41157;53.560;10.098;2023-06-10T17:12:24;4.68;;;2.60;;
55292;SDS011;41157;53.560;10.098;2023-06-10T17:14:51;9.93;;;2.83;;
55292;SDS011;41157;53.560;10.098;2023-06-10T17:17:18;8.23;;;3.00;;
55292;SDS011;41157;53.560;10.098;2023-06-10T17:19:45;5.35;;;3.00;;
55292;SDS011;41157;53.560;10.098;2023-06-10T17:22:12;8.18;;;3.13;;
55292;SDS011;41157;53.560;10.098;2023-06-10T17:24:39;5.85;;;2.90;;
55292;SDS011;41157;53.560;10.098;2023-06-10T17:27:08;6.85;;;3.05;;
55292;SDS011;41157;53.560;10.098;2023-06-10T17:29:35;5.45;;;2.53;;
55292;SDS011;41157;53.560;10.098;2023-06-10T17:32:04;7.55;;;3.00;;
55292;SDS011;41157;53.560;10.098;2023-06-10T17:34:31;8.77;;;3.00;;
55292;SDS011;41157;53.560;10.098;2023-06-10T17:36:58;4.32;;;2.88;;
55292;SDS011;41157;53.560;10.098;2023-06-10T17:39:25;4.95;;;2.92;;
55292;SDS011;41157;53.560;10.098;2023-06-10T17:41:52;10.80;;;2.40;;
55292;SDS011;41157;53.560;10.098;2023-06-10T17:44:21;6.75;;;2.75;;
55292;SDS011;41157;53.560;10.098;2023-06-10T17:46:49;5.85;;;2.45;;
55292;SDS011;41157;53.560;10.098;2023-06-10T17:49:17;6.10;;;2.90;;
55292;SDS011;41157;53.560;10.098;2023-06-10T17:51:45;6.20;;;2.75;;
55292;SDS011;41157;53.560;10.098;2023-06-10T17:54:12;8.00;;;3.60;;
55292;SDS011;41157;53.560;10.098;2023-06-10T17:56:39;8.07;;;3.30;;
55292;SDS011;41157;53.560;10.098;2023-06-10T17:59:06;8.93;;;3.88;;
55292;SDS011;41157;53.560;10.098;2023-06-10T18:01:34;15.57;;;4.38;;
55292;SDS011;41157;53.560;10.098;2023-06-10T18:04:02;6.13;;;3.30;;
55292;SDS011;41157;53.560;10.098;2023-06-10T18:06:29;7.47;;;3.20;;
55292;SDS011;41157;53.560;10.098;2023-06-10T18:08:56;7.07;;;2.70;;
55292;SDS011;41157;53.560;10.098;2023-06-10T18:11:23;7.82;;;3.40;;
55292;SDS011;41157;53.560;10.098;2023-06-10T18:13:52;8.73;;;4.35;;
55292;SDS011;41157;53.560;10.098;2023-06-10T18:16:19;13.38;;;3.67;;
55292;SDS011;41157;53.560;10.098;2023-06-10T18:18:48;7.13;;;3.30;;
55292;SDS011;41157;53.560;10.098;2023-06-10T18:21:15;6.57;;;3.88;;
55292;SDS011;41157;53.560;10.098;2023-06-10T18:23:42;19.38;;;3.45;;
55292;SDS011;41157;53.560;10.098;2023-06-10T18:26:09;7.60;;;3.40;;
55292;SDS011;41157;53.560;10.098;2023-06-10T18:28:36;8.32;;;3.10;;
55292;SDS011;41157;53.560;10.098;2023-06-10T18:31:03;13.80;;;3.67;;
55292;SDS011;41157;53.560;10.098;2023-06-10T18:33:32;12.02;;;3.15;;
55292;SDS011;41157;53.560;10.098;2023-06-10T18:36:00;10.82;;;3.03;;
55292;SDS011;41157;53.560;10.098;2023-06-10T18:38:27;11.35;;;3.35;;
55292;SDS011;41157;53.560;10.098;2023-06-10T18:40:54;12.38;;;3.00;;
55292;SDS011;41157;53.560;10.098;2023-06-10T18:43:21;11.95;;;3.20;;
55292;SDS011;41157;53.560;10.098;2023-06-10T18:45:48;5.18;;;2.95;;
55292;SDS011;41157;53.560;10.098;2023-06-10T18:48:15;7.80;;;3.35;;
55292;SDS011;41157;53.560;10.098;2023-06-10T18:50:42;10.20;;;3.05;;
55292;SDS011;41157;53.560;10.098;2023-06-10T18:53:10;7.05;;;2.63;;
55292;SDS011;41157;53.560;10.098;2023-06-10T18:55:38;6.75;;;2.90;;
55292;SDS011;41157;53.560;10.098;2023-06-10T18:58:05;4.55;;;2.40;;
55292;SDS011;41157;53.560;10.098;2023-06-10T19:00:32;11.57;;;3.35;;
55292;SDS011;41157;53.560;10.098;2023-06-10T19:02:59;8.55;;;2.70;;
55292;SDS011;41157;53.560;10.098;2023-06-10T19:05:26;5.70;;;2.85;;
55292;SDS011;41157;53.560;10.098;2023-06-10T19:07:53;16.70;;;3.53;;
55292;SDS011;41157;53.560;10.098;2023-06-10T19:10:22;8.65;;;3.17;;
55292;SDS011;41157;53.560;10.098;2023-06-10T19:12:49;6.38;;;3.20;;
55292;SDS011;41157;53.560;10.098;2023-06-10T19:15:16;9.02;;;2.72;;
55292;SDS011;41157;53.560;10.098;2023-06-10T19:17:43;6.03;;;2.90;;
55292;SDS011;41157;53.560;10.098;2023-06-10T19:20:10;10.05;;;2.70;;